sensor_id;sensor_type;location;lat;lon;timestamp;P1;durP1;ratioP1;P2;durP2;ratioP2
28086;SDS011;15392;48.912;8.380;2022-11-20T00:01:14;3.33;;;3.22;;
28086;SDS011;15392;48.912;8.380;2022-11-20T00:03:46;3.67;;;3.55;;
28086;SDS011;15392;48.912;8.380;2022-11-20T00:06:14;3.88;;;3.58;;
28086;SDS011;15392;48.912;8.380;2022-11-20T00:08:41;3.47;;;3.25;;
28086;SDS011;15392;48.912;8.380;2022-11-20T00:11:41;3.63;;;3.42;;
28086;SDS011;15392;48.912;8.380;2022-11-20T00:14:00;4.10;;;3.83;;
28086;SDS011;15392;48.912;8.380;2022-11-20T00:16:27;3.97;;;3.78;;
28086;SDS011;15392;48.912;8.380;2022-11-20T00:18:56;3.72;;;3.63;;
28086;SDS011;15392;48.912;8.380;2022-11-20T00:21:23;3.47;;;3.38;;
28086;SDS011;15392;48.912;8.380;2022-11-20T00:23:51;3.97;;;3.67;;
28086;SDS011;15392;48.912;8.380;2022-11-20T00:26:19;3.67;;;3.47;;
28086;SDS011;15392;48.912;8.380;2022-11-20T00:28:50;3.53;;;3.33;;
28086;SDS011;15392;48.912;8.380;2022-11-20T00:31:19;3.33;;;3.22;;
28086;SDS011;15392;48.912;8.380;2022-11-20T00:33:46;4.03;;;3.72;;
28086;SDS011;15392;48.912;8.380;2022-11-20T00:36:16;3.60;;;3.50;;
28086;SDS011;15392;48.912;8.380;2022-11-20T00:38:45;3.65;;;3.35;;
28086;SDS011;15392;48.912;8.380;2022-11-20T00:41:12;3.15;;;2.95;;
28086;SDS011;15392;48.912;8.380;2022-11-20T00:43:40;3.30;;;3.10;;
28086;SDS011;15392;48.912;8.380;2022-11-20T00:46:07;3.72;;;3.53;;
28086;SDS011;15392;48.912;8.380;2022-11-20T00:48:37;4.03;;;3.75;;
28086;SDS011;15392;48.912;8.380;2022-11-20T00:51:03;3.78;;;3.58;;
28086;SDS011;15392;48.912;8.380;2022-11-20T00:53:29;3.83;;;3.63;;
28086;SDS011;15392;48.912;8.380;2022-11-20T00:55:56;3.33;;;3.22;;
28086;SDS011;15392;48.912;8.380;2022-11-20T00:58:34;3.25;;;3.15;;
28086;SDS011;15392;48.912;8.380;2022-11-20T01:01:06;3.30;;;3.20;;
28086;SDS011;15392;48.912;8.380;2022-11-20T01:03:41;2.50;;;2.40;;
28086;SDS011;15392;48.912;8.380;2022-11-20T01:06:18;1.85;;;1.75;;
28086;SDS011;15392;48.912;8.380;2022-11-20T01:08:54;1.67;;;1.63;;
28086;SDS011;15392;48.912;8.380;2022-11-20T01:11:24;1.50;;;1.50;;
28086;SDS011;15392;48.912;8.380;2022-11-20T01:13:54;1.70;;;1.60;;
28086;SDS011;15392;48.912;8.380;2022-11-20T01:16:22;1.70;;;1.60;;
28086;SDS011;15392;48.912;8.380;2022-11-20T01:18:54;1.52;;;1.52;;
28086;SDS011;15392;48.912;8.380;2022-11-20T01:21:24;1.90;;;1.80;;
28086;SDS011;15392;48.912;8.380;2022-11-20T01:23:56;1.70;;;1.60;;
28086;SDS011;15392;48.912;8.380;2022-11-20T01:26:23;1.60;;;1.60;;
28086;SDS011;15392;48.912;8.380;2022-11-20T01:28:52;1.67;;;1.65;;
28086;SDS011;15392;48.912;8.380;2022-11-20T01:33:58;1.42;;;1.33;;
28086;SDS011;15392;48.912;8.380;2022-11-20T01:36:34;1.55;;;1.45;;
28086;SDS011;15392;48.912;8.380;2022-11-20T01:39:03;1.70;;;1.60;;
28086;SDS011;15392;48.912;8.380;2022-11-20T01:41:36;1.80;;;1.70;;
28086;SDS011;15392;48.912;8.380;2022-11-20T01:44:22;1.70;;;1.60;;
28086;SDS011;15392;48.912;8.380;2022-11-20T01:47:11;1.70;;;1.60;;
28086;SDS011;15392;48.912;8.380;2022-11-20T01:50:06;1.63;;;1.58;;
28086;SDS011;15392;48.912;8.380;2022-11-20T01:52:54;1.45;;;1.35;;
28086;SDS011;15392;48.912;8.380;2022-11-20T01:55:31;1.90;;;1.80;;
28086;SDS011;15392;48.912;8.380;2022-11-20T01:58:02;1.70;;;1.60;;
28086;SDS011;15392;48.912;8.380;2022-11-20T02:00:29;1.65;;;1.55;;
28086;SDS011;15392;48.912;8.380;2022-11-20T02:02:56;1.23;;;1.23;;
28086;SDS011;15392;48.912;8.380;2022-11-20T02:08:35;1.30;;;1.30;;
28086;SDS011;15392;48.912;8.380;2022-11-20T02:11:02;1.00;;;1.00;;
28086;SDS011;15392;48.912;8.380;2022-11-20T02:13:29;1.55;;;1.55;;
28086;SDS011;15392;48.912;8.380;2022-11-20T02:16:27;1.30;;;1.30;;
28086;SDS011;15392;48.912;8.380;2022-11-20T02:18:59;1.42;;;1.42;;
28086;SDS011;15392;48.912;8.380;2022-11-20T02:24:07;1.15;;;1.15;;
28086;SDS011;15392;48.912;8.380;2022-11-20T02:26:42;1.20;;;1.20;;
28086;SDS011;15392;48.912;8.380;2022-11-20T02:29:16;1.25;;;1.25;;
28086;SDS011;15392;48.912;8.380;2022-11-20T02:31:53;1.20;;;1.20;;
28086;SDS011;15392;48.912;8.380;2022-11-20T02:34:21;1.27;;;1.17;;
28086;SDS011;15392;48.912;8.380;2022-11-20T02:36:47;1.15;;;1.15;;
28086;SDS011;15392;48.912;8.380;2022-11-20T02:39:14;1.15;;;1.15;;
28086;SDS011;15392;48.912;8.380;2022-11-20T02:41:42;1.00;;;1.00;;
28086;SDS011;15392;48.912;8.380;2022-11-20T02:44:08;1.23;;;1.13;;
28086;SDS011;15392;48.912;8.380;2022-11-20T02:46:34;1.10;;;1.10;;
28086;SDS011;15392;48.912;8.380;2022-11-20T02:49:01;1.40;;;1.40;;
28086;SDS011;15392;48.912;8.380;2022-11-20T02:51:28;1.15;;;1.08;;
28086;SDS011;15392;48.912;8.380;2022-11-20T02:53:54;1.20;;;1.20;;
28086;SDS011;15392;48.912;8.380;2022-11-20T02:56:20;1.48;;;1.30;;
28086;SDS011;15392;48.912;8.380;2022-11-20T02:58:46;0.85;;;0.85;;
28086;SDS011;15392;48.912;8.380;2022-11-20T03:01:12;1.02;;;1.02;;
28086;SDS011;15392;48.912;8.380;2022-11-20T03:03:38;1.00;;;1.00;;
28086;SDS011;15392;48.912;8.380;2022-11-20T03:06:04;1.10;;;1.10;;
28086;SDS011;15392;48.912;8.380;2022-11-20T03:08:30;1.00;;;1.00;;
28086;SDS011;15392;48.912;8.380;2022-11-20T03:10:56;1.00;;;1.00;;
28086;SDS011;15392;48.912;8.380;2022-11-20T03:13:22;1.10;;;1.10;;
28086;SDS011;15392;48.912;8.380;2022-11-20T03:15:47;1.30;;;1.30;;
28086;SDS011;15392;48.912;8.380;2022-11-20T03:18:13;1.27;;;1.27;;
28086;SDS011;15392;48.912;8.380;2022-11-20T03:20:39;1.15;;;1.15;;
28086;SDS011;15392;48.912;8.380;2022-11-20T03:23:05;0.80;;;0.80;;
28086;SDS011;15392;48.912;8.380;2022-11-20T03:25:31;1.30;;;1.20;;
28086;SDS011;15392;48.912;8.380;2022-11-20T03:27:56;1.00;;;1.00;;
28086;SDS011;15392;48.912;8.380;2022-11-20T03:30:22;0.98;;;0.98;;
28086;SDS011;15392;48.912;8.380;2022-11-20T03:32:48;1.10;;;1.10;;
28086;SDS011;15392;48.912;8.380;2022-11-20T03:35:14;1.58;;;1.48;;
28086;SDS011;15392;48.912;8.380;2022-11-20T03:37:39;1.52;;;1.20;;
28086;SDS011;15392;48.912;8.380;2022-11-20T03:40:06;1.25;;;1.25;;
28086;SDS011;15392;48.912;8.380;2022-11-20T03:42:32;1.13;;;1.10;;
28086;SDS011;15392;48.912;8.380;2022-11-20T03:45:10;1.30;;;1.30;;
28086;SDS011;15392;48.912;8.380;2022-11-20T03:47:40;1.27;;;1.27;;
28086;SDS011;15392;48.912;8.380;2022-11-20T03:50:06;1.38;;;1.10;;
28086;SDS011;15392;48.912;8.380;2022-11-20T03:52:33;1.00;;;1.00;;
28086;SDS011;15392;48.912;8.380;2022-11-20T03:54:59;1.10;;;1.10;;
28086;SDS011;15392;48.912;8.380;2022-11-20T03:57:24;1.38;;;1.02;;
28086;SDS011;15392;48.912;8.380;2022-11-20T03:59:50;1.23;;;1.23;;
28086;SDS011;15392;48.912;8.380;2022-11-20T04:02:16;1.20;;;1.15;;
28086;SDS011;15392;48.912;8.380;2022-11-20T04:04:42;1.25;;;1.25;;
28086;SDS011;15392;48.912;8.380;2022-11-20T04:07:07;1.70;;;1.60;;
28086;SDS011;15392;48.912;8.380;2022-11-20T04:09:33;1.00;;;1.00;;
28086;SDS011;15392;48.912;8.380;2022-11-20T04:11:59;1.13;;;1.10;;
28086;SDS011;15392;48.912;8.380;2022-11-20T04:14:25;1.30;;;1.30;;
28086;SDS011;15392;48.912;8.380;2022-11-20T04:16:50;1.38;;;1.27;;
28086;SDS011;15392;48.912;8.380;2022-11-20T04:19:16;1.13;;;1.13;;
28086;SDS011;15392;48.912;8.380;2022-11-20T04:21:42;1.20;;;1.20;;
28086;SDS011;15392;48.912;8.380;2022-11-20T04:24:09;1.25;;;1.25;;
28086;SDS011;15392;48.912;8.380;2022-11-20T04:26:35;1.00;;;1.00;;
28086;SDS011;15392;48.912;8.380;2022-11-20T04:29:02;1.45;;;1.35;;
28086;SDS011;15392;48.912;8.380;2022-11-20T04:31:31;1.13;;;1.13;;
28086;SDS011;15392;48.912;8.380;2022-11-20T04:33:59;1.30;;;1.30;;
28086;SDS011;15392;48.912;8.380;2022-11-20T04:36:30;1.10;;;1.10;;
28086;SDS011;15392;48.912;8.380;2022-11-20T04:38:57;0.90;;;0.90;;
28086;SDS011;15392;48.912;8.380;2022-11-20T04:41:27;1.08;;;1.08;;
28086;SDS011;15392;48.912;8.380;2022-11-20T04:43:56;1.55;;;1.45;;
28086;SDS011;15392;48.912;8.380;2022-11-20T04:46:30;1.30;;;1.20;;
28086;SDS011;15392;48.912;8.380;2022-11-20T04:48:58;1.10;;;1.10;;
28086;SDS011;15392;48.912;8.380;2022-11-20T04:51:25;1.30;;;1.25;;
28086;SDS011;15392;48.912;8.380;2022-11-20T04:53:51;1.42;;;1.33;;
28086;SDS011;15392;48.912;8.380;2022-11-20T04:56:17;0.95;;;0.95;;
28086;SDS011;15392;48.912;8.380;2022-11-20T04:58:43;1.02;;;1.02;;
28086;SDS011;15392;48.912;8.380;2022-11-20T05:01:13;1.10;;;1.10;;
28086;SDS011;15392;48.912;8.380;2022-11-20T05:03:43;1.00;;;1.00;;
28086;SDS011;15392;48.912;8.380;2022-11-20T05:06:11;0.82;;;0.82;;
28086;SDS011;15392;48.912;8.380;2022-11-20T05:08:38;1.40;;;1.17;;
28086;SDS011;15392;48.912;8.380;2022-11-20T05:11:09;1.10;;;1.02;;
28086;SDS011;15392;48.912;8.380;2022-11-20T05:13:44;0.90;;;0.90;;
28086;SDS011;15392;48.912;8.380;2022-11-20T05:16:14;0.80;;;0.80;;
28086;SDS011;15392;48.912;8.380;2022-11-20T05:18:42;0.88;;;0.88;;
28086;SDS011;15392;48.912;8.380;2022-11-20T05:21:09;0.68;;;0.68;;
28086;SDS011;15392;48.912;8.380;2022-11-20T05:23:36;0.70;;;0.70;;
28086;SDS011;15392;48.912;8.380;2022-11-20T05:26:03;0.60;;;0.60;;
28086;SDS011;15392;48.912;8.380;2022-11-20T05:28:31;0.80;;;0.80;;
28086;SDS011;15392;48.912;8.380;2022-11-20T05:31:08;0.57;;;0.57;;
28086;SDS011;15392;48.912;8.380;2022-11-20T05:33:40;0.40;;;0.40;;
28086;SDS011;15392;48.912;8.380;2022-11-20T05:36:07;0.70;;;0.70;;
28086;SDS011;15392;48.912;8.380;2022-11-20T05:38:35;0.47;;;0.47;;
28086;SDS011;15392;48.912;8.380;2022-11-20T05:41:08;0.63;;;0.63;;
28086;SDS011;15392;48.912;8.380;2022-11-20T05:43:37;0.65;;;0.65;;
28086;SDS011;15392;48.912;8.380;2022-11-20T05:46:05;0.52;;;0.52;;
28086;SDS011;15392;48.912;8.380;2022-11-20T05:48:33;0.50;;;0.50;;
28086;SDS011;15392;48.912;8.380;2022-11-20T05:51:01;0.50;;;0.50;;
28086;SDS011;15392;48.912;8.380;2022-11-20T05:53:29;0.60;;;0.60;;
28086;SDS011;15392;48.912;8.380;2022-11-20T05:55:58;0.77;;;0.70;;
28086;SDS011;15392;48.912;8.380;2022-11-20T05:58:39;0.60;;;0.60;;
28086;SDS011;15392;48.912;8.380;2022-11-20T06:01:07;0.70;;;0.70;;
28086;SDS011;15392;48.912;8.380;2022-11-20T06:03:45;2.25;;;0.70;;
28086;SDS011;15392;48.912;8.380;2022-11-20T06:06:13;0.57;;;0.57;;
28086;SDS011;15392;48.912;8.380;2022-11-20T06:08:40;0.50;;;0.50;;
28086;SDS011;15392;48.912;8.380;2022-11-20T06:11:07;0.50;;;0.50;;
28086;SDS011;15392;48.912;8.380;2022-11-20T06:13:35;0.45;;;0.45;;
28086;SDS011;15392;48.912;8.380;2022-11-20T06:16:02;0.73;;;0.60;;
28086;SDS011;15392;48.912;8.380;2022-11-20T06:18:28;0.60;;;0.60;;
28086;SDS011;15392;48.912;8.380;2022-11-20T06:23:30;0.50;;;0.50;;
28086;SDS011;15392;48.912;8.380;2022-11-20T06:26:01;0.50;;;0.50;;
28086;SDS011;15392;48.912;8.380;2022-11-20T06:28:29;0.70;;;0.70;;
28086;SDS011;15392;48.912;8.380;2022-11-20T06:30:55;0.50;;;0.50;;
28086;SDS011;15392;48.912;8.380;2022-11-20T06:33:21;0.50;;;0.50;;
28086;SDS011;15392;48.912;8.380;2022-11-20T06:35:47;0.60;;;0.60;;
28086;SDS011;15392;48.912;8.380;2022-11-20T06:38:13;0.70;;;0.70;;
28086;SDS011;15392;48.912;8.380;2022-11-20T06:40:40;0.70;;;0.70;;
28086;SDS011;15392;48.912;8.380;2022-11-20T06:43:06;0.50;;;0.50;;
28086;SDS011;15392;48.912;8.380;2022-11-20T06:45:33;0.40;;;0.40;;
28086;SDS011;15392;48.912;8.380;2022-11-20T06:47:59;0.60;;;0.60;;
28086;SDS011;15392;48.912;8.380;2022-11-20T06:50:24;0.40;;;0.40;;
28086;SDS011;15392;48.912;8.380;2022-11-20T06:52:50;0.50;;;0.50;;
28086;SDS011;15392;48.912;8.380;2022-11-20T06:55:16;0.55;;;0.55;;
28086;SDS011;15392;48.912;8.380;2022-11-20T06:57:42;0.50;;;0.50;;
28086;SDS011;15392;48.912;8.380;2022-11-20T07:00:07;0.40;;;0.40;;
28086;SDS011;15392;48.912;8.380;2022-11-20T07:02:34;0.45;;;0.45;;
28086;SDS011;15392;48.912;8.380;2022-11-20T07:05:00;0.65;;;0.60;;
28086;SDS011;15392;48.912;8.380;2022-11-20T07:07:26;0.40;;;0.40;;
28086;SDS011;15392;48.912;8.380;2022-11-20T07:09:51;0.70;;;0.70;;
28086;SDS011;15392;48.912;8.380;2022-11-20T07:12:18;0.57;;;0.57;;
28086;SDS011;15392;48.912;8.380;2022-11-20T07:14:44;0.50;;;0.50;;
28086;SDS011;15392;48.912;8.380;2022-11-20T07:17:10;0.50;;;0.50;;
28086;SDS011;15392;48.912;8.380;2022-11-20T07:19:36;0.40;;;0.40;;
28086;SDS011;15392;48.912;8.380;2022-11-20T07:22:02;0.45;;;0.45;;
28086;SDS011;15392;48.912;8.380;2022-11-20T07:24:28;0.50;;;0.50;;
28086;SDS011;15392;48.912;8.380;2022-11-20T07:26:54;0.57;;;0.57;;
28086;SDS011;15392;48.912;8.380;2022-11-20T07:29:19;0.40;;;0.40;;
28086;SDS011;15392;48.912;8.380;2022-11-20T07:31:45;0.40;;;0.40;;
28086;SDS011;15392;48.912;8.380;2022-11-20T07:34:11;0.40;;;0.40;;
28086;SDS011;15392;48.912;8.380;2022-11-20T07:36:37;0.30;;;0.30;;
28086;SDS011;15392;48.912;8.380;2022-11-20T07:39:02;0.40;;;0.40;;
28086;SDS011;15392;48.912;8.380;2022-11-20T07:41:28;0.40;;;0.35;;
28086;SDS011;15392;48.912;8.380;2022-11-20T07:43:54;0.32;;;0.32;;
28086;SDS011;15392;48.912;8.380;2022-11-20T07:46:20;0.50;;;0.50;;
28086;SDS011;15392;48.912;8.380;2022-11-20T07:48:45;0.50;;;0.50;;
28086;SDS011;15392;48.912;8.380;2022-11-20T07:51:11;0.40;;;0.40;;
28086;SDS011;15392;48.912;8.380;2022-11-20T07:53:39;0.40;;;0.40;;
28086;SDS011;15392;48.912;8.380;2022-11-20T07:56:04;0.38;;;0.38;;
28086;SDS011;15392;48.912;8.380;2022-11-20T07:58:31;0.50;;;0.50;;
28086;SDS011;15392;48.912;8.380;2022-11-20T08:01:03;0.40;;;0.40;;
28086;SDS011;15392;48.912;8.380;2022-11-20T08:03:30;0.50;;;0.50;;
28086;SDS011;15392;48.912;8.380;2022-11-20T08:06:00;0.60;;;0.40;;
28086;SDS011;15392;48.912;8.380;2022-11-20T08:08:27;0.47;;;0.47;;
28086;SDS011;15392;48.912;8.380;2022-11-20T08:10:53;0.60;;;0.60;;
28086;SDS011;15392;48.912;8.380;2022-11-20T08:13:41;0.45;;;0.45;;
28086;SDS011;15392;48.912;8.380;2022-11-20T08:16:26;0.30;;;0.30;;
28086;SDS011;15392;48.912;8.380;2022-11-20T08:18:53;0.40;;;0.40;;
28086;SDS011;15392;48.912;8.380;2022-11-20T08:21:19;0.50;;;0.50;;
28086;SDS011;15392;48.912;8.380;2022-11-20T08:23:44;0.50;;;0.50;;
28086;SDS011;15392;48.912;8.380;2022-11-20T08:26:10;0.50;;;0.50;;
28086;SDS011;15392;48.912;8.380;2022-11-20T08:28:36;0.60;;;0.60;;
28086;SDS011;15392;48.912;8.380;2022-11-20T08:31:02;2.33;;;2.22;;
28086;SDS011;15392;48.912;8.380;2022-11-20T08:33:29;4.90;;;4.70;;
28086;SDS011;15392;48.912;8.380;2022-11-20T08:36:03;3.08;;;2.88;;
28086;SDS011;15392;48.912;8.380;2022-11-20T08:38:30;2.35;;;2.25;;
28086;SDS011;15392;48.912;8.380;2022-11-20T08:41:01;1.33;;;1.33;;
28086;SDS011;15392;48.912;8.380;2022-11-20T08:43:47;1.00;;;1.00;;
28086;SDS011;15392;48.912;8.380;2022-11-20T08:46:14;0.80;;;0.80;;
28086;SDS011;15392;48.912;8.380;2022-11-20T08:48:40;1.42;;;1.42;;
28086;SDS011;15392;48.912;8.380;2022-11-20T08:51:06;0.85;;;0.85;;
28086;SDS011;15392;48.912;8.380;2022-11-20T08:53:32;0.90;;;0.90;;
28086;SDS011;15392;48.912;8.380;2022-11-20T08:55:58;0.70;;;0.70;;
28086;SDS011;15392;48.912;8.380;2022-11-20T08:58:24;0.50;;;0.50;;
28086;SDS011;15392;48.912;8.380;2022-11-20T09:00:51;0.80;;;0.80;;
28086;SDS011;15392;48.912;8.380;2022-11-20T09:03:17;1.00;;;1.00;;
28086;SDS011;15392;48.912;8.380;2022-11-20T09:05:43;0.85;;;0.85;;
28086;SDS011;15392;48.912;8.380;2022-11-20T09:08:10;0.60;;;0.60;;
28086;SDS011;15392;48.912;8.380;2022-11-20T09:10:36;0.63;;;0.63;;
28086;SDS011;15392;48.912;8.380;2022-11-20T09:13:04;0.60;;;0.60;;
28086;SDS011;15392;48.912;8.380;2022-11-20T09:15:31;0.60;;;0.60;;
28086;SDS011;15392;48.912;8.380;2022-11-20T09:17:57;0.70;;;0.70;;
28086;SDS011;15392;48.912;8.380;2022-11-20T09:20:28;0.70;;;0.70;;
28086;SDS011;15392;48.912;8.380;2022-11-20T09:22:55;0.70;;;0.70;;
28086;SDS011;15392;48.912;8.380;2022-11-20T09:25:22;0.70;;;0.70;;
28086;SDS011;15392;48.912;8.380;2022-11-20T09:27:54;0.60;;;0.60;;
28086;SDS011;15392;48.912;8.380;2022-11-20T09:30:23;0.73;;;0.73;;
28086;SDS011;15392;48.912;8.380;2022-11-20T09:32:50;0.77;;;0.77;;
28086;SDS011;15392;48.912;8.380;2022-11-20T09:35:16;0.73;;;0.73;;
28086;SDS011;15392;48.912;8.380;2022-11-20T09:37:43;0.90;;;0.90;;
28086;SDS011;15392;48.912;8.380;2022-11-20T09:40:30;0.52;;;0.52;;
28086;SDS011;15392;48.912;8.380;2022-11-20T09:43:00;1.05;;;0.70;;
28086;SDS011;15392;48.912;8.380;2022-11-20T09:49:18;0.80;;;0.70;;
28086;SDS011;15392;48.912;8.380;2022-11-20T09:55:12;0.95;;;0.80;;
28086;SDS011;15392;48.912;8.380;2022-11-20T09:57:40;1.00;;;1.00;;
28086;SDS011;15392;48.912;8.380;2022-11-20T10:00:10;1.00;;;1.00;;
28086;SDS011;15392;48.912;8.380;2022-11-20T10:05:29;1.20;;;1.13;;
28086;SDS011;15392;48.912;8.380;2022-11-20T10:08:22;1.00;;;1.00;;
28086;SDS011;15392;48.912;8.380;2022-11-20T10:17:38;0.80;;;0.80;;
28086;SDS011;15392;48.912;8.380;2022-11-20T10:26:22;0.90;;;0.90;;
28086;SDS011;15392;48.912;8.380;2022-11-20T10:29:13;0.80;;;0.80;;
28086;SDS011;15392;48.912;8.380;2022-11-20T10:31:50;1.05;;;1.05;;
28086;SDS011;15392;48.912;8.380;2022-11-20T10:37:25;1.55;;;1.45;;
28086;SDS011;15392;48.912;8.380;2022-11-20T10:43:32;1.20;;;1.10;;
28086;SDS011;15392;48.912;8.380;2022-11-20T10:45:53;1.20;;;1.20;;
28086;SDS011;15392;48.912;8.380;2022-11-20T10:48:30;0.90;;;0.90;;
28086;SDS011;15392;48.912;8.380;2022-11-20T11:00:32;0.95;;;0.82;;
28086;SDS011;15392;48.912;8.380;2022-11-20T11:02:58;0.90;;;0.85;;
28086;SDS011;15392;48.912;8.380;2022-11-20T11:08:13;0.80;;;0.80;;
28086;SDS011;15392;48.912;8.380;2022-11-20T11:13:25;0.93;;;0.93;;
28086;SDS011;15392;48.912;8.380;2022-11-20T11:15:54;0.88;;;0.88;;
28086;SDS011;15392;48.912;8.380;2022-11-20T11:18:28;0.73;;;0.73;;
28086;SDS011;15392;48.912;8.380;2022-11-20T11:20:57;0.60;;;0.60;;
28086;SDS011;15392;48.912;8.380;2022-11-20T11:26:05;0.85;;;0.85;;
28086;SDS011;15392;48.912;8.380;2022-11-20T11:28:56;0.50;;;0.50;;
28086;SDS011;15392;48.912;8.380;2022-11-20T11:31:28;1.15;;;0.90;;
28086;SDS011;15392;48.912;8.380;2022-11-20T11:34:06;0.73;;;0.73;;
28086;SDS011;15392;48.912;8.380;2022-11-20T11:36:38;0.60;;;0.60;;
28086;SDS011;15392;48.912;8.380;2022-11-20T11:39:05;0.60;;;0.60;;
28086;SDS011;15392;48.912;8.380;2022-11-20T11:41:39;0.70;;;0.70;;
28086;SDS011;15392;48.912;8.380;2022-11-20T11:44:16;0.70;;;0.70;;
28086;SDS011;15392;48.912;8.380;2022-11-20T11:47:49;1.67;;;0.70;;
28086;SDS011;15392;48.912;8.380;2022-11-20T11:52:42;0.80;;;0.80;;
28086;SDS011;15392;48.912;8.380;2022-11-20T12:07:20;0.85;;;0.60;;
28086;SDS011;15392;48.912;8.380;2022-11-20T12:09:57;0.70;;;0.70;;
28086;SDS011;15392;48.912;8.380;2022-11-20T12:12:33;0.80;;;0.80;;
28086;SDS011;15392;48.912;8.380;2022-11-20T12:15:09;0.80;;;0.80;;
28086;SDS011;15392;48.912;8.380;2022-11-20T12:17:40;0.70;;;0.63;;
28086;SDS011;15392;48.912;8.380;2022-11-20T12:20:11;0.70;;;0.70;;
28086;SDS011;15392;48.912;8.380;2022-11-20T12:25:24;0.70;;;0.70;;
28086;SDS011;15392;48.912;8.380;2022-11-20T12:34:00;1.10;;;1.00;;
28086;SDS011;15392;48.912;8.380;2022-11-20T12:36:49;4.65;;;4.35;;
28086;SDS011;15392;48.912;8.380;2022-11-20T12:39:49;1.70;;;1.55;;
28086;SDS011;15392;48.912;8.380;2022-11-20T12:42:31;1.70;;;1.35;;
28086;SDS011;15392;48.912;8.380;2022-11-20T12:57:18;0.85;;;0.85;;
28086;SDS011;15392;48.912;8.380;2022-11-20T13:05:53;0.50;;;0.40;;
28086;SDS011;15392;48.912;8.380;2022-11-20T13:08:40;1.02;;;0.70;;
28086;SDS011;15392;48.912;8.380;2022-11-20T13:11:21;0.90;;;0.90;;
28086;SDS011;15392;48.912;8.380;2022-11-20T13:14:14;1.20;;;1.20;;
28086;SDS011;15392;48.912;8.380;2022-11-20T13:17:09;1.83;;;1.73;;
28086;SDS011;15392;48.912;8.380;2022-11-20T13:19:52;1.10;;;1.10;;
28086;SDS011;15392;48.912;8.380;2022-11-20T13:22:27;1.00;;;1.00;;
28086;SDS011;15392;48.912;8.380;2022-11-20T13:25:09;0.47;;;0.47;;
28086;SDS011;15392;48.912;8.380;2022-11-20T13:27:47;0.60;;;0.60;;
28086;SDS011;15392;48.912;8.380;2022-11-20T13:30:15;0.70;;;0.70;;
28086;SDS011;15392;48.912;8.380;2022-11-20T13:32:53;0.80;;;0.80;;
28086;SDS011;15392;48.912;8.380;2022-11-20T13:35:53;0.43;;;0.43;;
28086;SDS011;15392;48.912;8.380;2022-11-20T13:38:50;0.80;;;0.60;;
28086;SDS011;15392;48.912;8.380;2022-11-20T13:41:25;0.40;;;0.32;;
28086;SDS011;15392;48.912;8.380;2022-11-20T13:44:09;0.68;;;0.45;;
28086;SDS011;15392;48.912;8.380;2022-11-20T13:46:45;0.50;;;0.50;;
28086;SDS011;15392;48.912;8.380;2022-11-20T13:49:20;2.60;;;1.35;;
28086;SDS011;15392;48.912;8.380;2022-11-20T13:51:56;0.60;;;0.60;;
28086;SDS011;15392;48.912;8.380;2022-11-20T14:00:57;1.83;;;0.77;;
28086;SDS011;15392;48.912;8.380;2022-11-20T14:03:32;0.55;;;0.47;;
28086;SDS011;15392;48.912;8.380;2022-11-20T14:06:01;0.30;;;0.30;;
28086;SDS011;15392;48.912;8.380;2022-11-20T14:08:37;0.40;;;0.40;;
28086;SDS011;15392;48.912;8.380;2022-11-20T14:16:36;0.40;;;0.40;;
28086;SDS011;15392;48.912;8.380;2022-11-20T14:22:29;0.60;;;0.60;;
28086;SDS011;15392;48.912;8.380;2022-11-20T14:27:32;1.40;;;1.23;;
28086;SDS011;15392;48.912;8.380;2022-11-20T14:30:02;0.80;;;0.80;;
28086;SDS011;15392;48.912;8.380;2022-11-20T14:32:29;0.90;;;0.90;;
28086;SDS011;15392;48.912;8.380;2022-11-20T14:34:58;3.60;;;1.05;;
28086;SDS011;15392;48.912;8.380;2022-11-20T14:37:33;2.40;;;2.20;;
28086;SDS011;15392;48.912;8.380;2022-11-20T14:40:05;1.13;;;0.95;;
28086;SDS011;15392;48.912;8.380;2022-11-20T14:42:51;3.42;;;3.22;;
28086;SDS011;15392;48.912;8.380;2022-11-20T14:45:18;1.10;;;1.05;;
28086;SDS011;15392;48.912;8.380;2022-11-20T14:47:44;0.90;;;0.90;;
28086;SDS011;15392;48.912;8.380;2022-11-20T14:50:16;0.75;;;0.75;;
28086;SDS011;15392;48.912;8.380;2022-11-20T14:52:58;0.70;;;0.70;;
28086;SDS011;15392;48.912;8.380;2022-11-20T14:55:29;0.70;;;0.70;;
28086;SDS011;15392;48.912;8.380;2022-11-20T14:58:04;2.70;;;2.60;;
28086;SDS011;15392;48.912;8.380;2022-11-20T15:00:53;6.32;;;5.93;;
28086;SDS011;15392;48.912;8.380;2022-11-20T15:03:32;10.00;;;9.20;;
28086;SDS011;15392;48.912;8.380;2022-11-20T15:06:03;6.00;;;5.65;;
28086;SDS011;15392;48.912;8.380;2022-11-20T15:08:31;5.60;;;5.20;;
28086;SDS011;15392;48.912;8.380;2022-11-20T15:10:56;3.72;;;3.53;;
28086;SDS011;15392;48.912;8.380;2022-11-20T15:15:58;5.40;;;5.10;;
28086;SDS011;15392;48.912;8.380;2022-11-20T15:20:54;3.00;;;2.90;;
28086;SDS011;15392;48.912;8.380;2022-11-20T15:23:22;2.30;;;2.20;;
28086;SDS011;15392;48.912;8.380;2022-11-20T15:25:48;1.67;;;1.67;;
28086;SDS011;15392;48.912;8.380;2022-11-20T15:28:19;1.63;;;1.55;;
28086;SDS011;15392;48.912;8.380;2022-11-20T15:31:02;2.10;;;2.00;;
28086;SDS011;15392;48.912;8.380;2022-11-20T15:33:29;1.65;;;1.65;;
28086;SDS011;15392;48.912;8.380;2022-11-20T15:35:56;1.80;;;1.70;;
28086;SDS011;15392;48.912;8.380;2022-11-20T15:38:22;2.20;;;2.10;;
28086;SDS011;15392;48.912;8.380;2022-11-20T15:40:48;1.20;;;1.20;;
28086;SDS011;15392;48.912;8.380;2022-11-20T15:43:14;1.25;;;1.25;;
28086;SDS011;15392;48.912;8.380;2022-11-20T15:45:44;1.58;;;1.33;;
28086;SDS011;15392;48.912;8.380;2022-11-20T15:48:34;1.38;;;1.10;;
28086;SDS011;15392;48.912;8.380;2022-11-20T15:53:44;0.70;;;0.70;;
28086;SDS011;15392;48.912;8.380;2022-11-20T15:56:11;0.75;;;0.75;;
28086;SDS011;15392;48.912;8.380;2022-11-20T15:58:38;1.58;;;1.48;;
28086;SDS011;15392;48.912;8.380;2022-11-20T16:01:05;1.02;;;1.02;;
28086;SDS011;15392;48.912;8.380;2022-11-20T16:03:34;2.15;;;1.77;;
28086;SDS011;15392;48.912;8.380;2022-11-20T16:06:00;1.60;;;1.50;;
28086;SDS011;15392;48.912;8.380;2022-11-20T16:08:26;1.05;;;1.05;;
28086;SDS011;15392;48.912;8.380;2022-11-20T16:10:51;0.80;;;0.80;;
28086;SDS011;15392;48.912;8.380;2022-11-20T16:13:17;0.75;;;0.75;;
28086;SDS011;15392;48.912;8.380;2022-11-20T16:16:03;1.15;;;1.15;;
28086;SDS011;15392;48.912;8.380;2022-11-20T16:18:56;0.90;;;0.90;;
28086;SDS011;15392;48.912;8.380;2022-11-20T16:21:22;1.33;;;1.33;;
28086;SDS011;15392;48.912;8.380;2022-11-20T16:24:01;1.23;;;1.23;;
28086;SDS011;15392;48.912;8.380;2022-11-20T16:26:29;0.98;;;0.98;;
28086;SDS011;15392;48.912;8.380;2022-11-20T16:28:57;0.90;;;0.90;;
28086;SDS011;15392;48.912;8.380;2022-11-20T16:31:25;1.00;;;0.90;;
28086;SDS011;15392;48.912;8.380;2022-11-20T16:33:51;0.55;;;0.55;;
28086;SDS011;15392;48.912;8.380;2022-11-20T16:36:23;0.60;;;0.60;;
28086;SDS011;15392;48.912;8.380;2022-11-20T16:38:51;0.70;;;0.70;;
28086;SDS011;15392;48.912;8.380;2022-11-20T16:41:18;0.50;;;0.50;;
28086;SDS011;15392;48.912;8.380;2022-11-20T16:43:45;0.47;;;0.47;;
28086;SDS011;15392;48.912;8.380;2022-11-20T16:46:16;0.75;;;0.73;;
28086;SDS011;15392;48.912;8.380;2022-11-20T16:48:44;1.67;;;1.58;;
28086;SDS011;15392;48.912;8.380;2022-11-20T16:51:17;2.30;;;2.20;;
28086;SDS011;15392;48.912;8.380;2022-11-20T16:53:43;1.40;;;1.40;;
28086;SDS011;15392;48.912;8.380;2022-11-20T16:56:09;1.40;;;1.20;;
28086;SDS011;15392;48.912;8.380;2022-11-20T16:58:44;1.70;;;1.60;;
28086;SDS011;15392;48.912;8.380;2022-11-20T17:01:13;1.42;;;1.42;;
28086;SDS011;15392;48.912;8.380;2022-11-20T17:03:42;4.43;;;4.22;;
28086;SDS011;15392;48.912;8.380;2022-11-20T17:06:13;4.97;;;4.75;;
28086;SDS011;15392;48.912;8.380;2022-11-20T17:08:45;3.08;;;2.97;;
28086;SDS011;15392;48.912;8.380;2022-11-20T17:11:12;2.30;;;2.20;;
28086;SDS011;15392;48.912;8.380;2022-11-20T17:13:41;2.25;;;2.03;;